Pevely, MO

4:21 PM CDT on September 01, 2014 (GMT -0500)
Saint Louis Downtown | Change Station
CLOSE
Current Station
Airport
Location: Cahokia,
Elevation: 410 ft
Nearby Weather Stations
Active Advisory: Flash Flood Watch

Elev 410 ft 38.57 °N, 90.16 °W | Updated 28 minutes ago

Clear
Clear
85 °F
Feels Like 87 °F
N
7
Wind Variable Wind from SSW

Today
High -- | Low -- °F
--% Chance of Precip.
Yesterday
High -- | Low -- °F
Precip. -- in
6:31 AM 7:31 PM
Waxing Crescent, 44% visible
Pressure 29.88 in
Visibility 10.0 miles
Clouds Clear
Heat Index 87 °F
Dew Point 66 °F
Humidity 53%
Rainfall 0.01 in
Snow Depth Not available.
UV 5 out of 12
Pollen 10.80 out of 12
Air Quality Not available.
Flu Activity Not available.
METAR KCPS 012053Z 20006KT 10SM CLR 29/19 A2989 RMK AO2 SLP119 T02940189 58002 $

More Conditions Fewer Conditions

Pressure 29.88 in
Visibility 10.0 miles
Clouds Clear
Heat Index 87 °F
Dew Point 66 °F
Humidity 53%
Rainfall 0.01 in
Snow Depth Not available.
UV 5 out of 12
Pollen 10.80 out of 12
Air Quality Not available.
Flu Activity Not available.
METAR KCPS 012053Z 20006KT 10SM CLR 29/19 A2989 RMK AO2 SLP119 T02940189 58002 $

More Conditions Fewer Conditions

10-Day Weather Forecast

Almanac

Astronomy

Sep. 01, 2014 Rise Set
Actual Time 6:31 AM CDT 7:31 PM CDT
Civil Twilight 6:04 AM CDT 7:58 PM CDT
Nautical Twilight 5:32 AM CDT 8:30 PM CDT
Astronomical Twilight 4:58 AM CDT 9:03 PM CDT
Moon 1:11 PM CDT 11:38 PM CDT
Length of Visible Light 13h 54m
Length of Day
13h 00m
Tomorrow will be 2m 22s shorter.
Waxing Crescent, 44% of the Moon is Illuminated
Today
Waxing Crescent
Sep 2
First Quarter
Sep 8
Full
Sep 15
Last Quarter
Sep 24
New

Today's Extremes

State Highs State Lows

Community

WunderPhotos

Upload Photos

1,749,413 photos uploaded!

WunderBlogs® & News

Nearby

Snow Depth

Station Depth Elevation
No new snow has been reported.

Earthquake Activity

City Distance Mag. Time & Date
Tiptonville, Tennessee 140 miles 2.9 11:19 PM CDT
2014-08-31
Minimum magnitude displayed is 2.5.

Coastal Water Temperatures

Place Temperature
No Stations Reporting

Nearby Weather Stations